createdAt,value
2022-10-22T00:00:18.093Z,100294.56
2022-10-22T00:02:45.961Z,100301.69
2022-10-22T00:05:13.805Z,100295.91
2022-10-22T00:07:42.928Z,100290.91
2022-10-22T00:10:11.174Z,100280.56
2022-10-22T00:12:40.151Z,100268.75
2022-10-22T00:15:08.660Z,100291.66
2022-10-22T00:17:36.174Z,100285.94
2022-10-22T00:20:03.726Z,100275.75
2022-10-22T00:22:31.196Z,100279.75
2022-10-22T00:25:00.022Z,100277.91
2022-10-22T00:27:27.521Z,100272.53
2022-10-22T00:29:54.993Z,100268.59
2022-10-22T00:32:22.496Z,100266.66
2022-10-22T00:34:49.958Z,100266.00
2022-10-22T00:37:17.473Z,100258.03
2022-10-22T00:39:44.908Z,100258.63
2022-10-22T00:42:19.203Z,100264.16
2022-10-22T00:45:03.123Z,100258.19
2022-10-22T00:47:33.170Z,100266.22
2022-10-22T00:50:01.228Z,100263.09
2022-10-22T00:52:29.469Z,100273.38
2022-10-22T00:54:58.309Z,100268.41
2022-10-22T00:57:27.561Z,100258.56
2022-10-22T00:59:55.466Z,100261.47
2022-10-22T01:02:22.956Z,100253.88
2022-10-22T01:04:50.485Z,100253.03
2022-10-22T01:07:19.960Z,100253.56
2022-10-22T01:09:53.780Z,100252.34
2022-10-22T01:12:28.557Z,100263.66
2022-10-22T01:15:06.233Z,100263.66
2022-10-22T01:17:36.777Z,100270.78
2022-10-22T01:20:15.059Z,100281.47
2022-10-22T01:22:45.207Z,100281.91
2022-10-22T01:25:18.461Z,100279.09
2022-10-22T01:27:54.971Z,100286.84
2022-10-22T01:30:24.413Z,100285.41
2022-10-22T01:32:53.543Z,100283.50
2022-10-22T01:35:23.886Z,100287.78
2022-10-22T01:37:54.418Z,100282.81
2022-10-22T01:40:23.053Z,100285.41
2022-10-22T01:42:58.489Z,100288.34
2022-10-22T01:45:27.757Z,100284.47
2022-10-22T01:48:01.162Z,100292.84
2022-10-22T01:50:39.202Z,100302.16
2022-10-22T01:53:26.933Z,100307.69
2022-10-22T01:56:13.987Z,100302.41
2022-10-22T01:58:45.853Z,100303.47
2022-10-22T02:01:19.624Z,100296.91
2022-10-22T02:03:50.041Z,100303.88
2022-10-22T02:06:20.196Z,100294.44
2022-10-22T02:08:48.498Z,100295.25
2022-10-22T02:11:16.664Z,100295.84
2022-10-22T02:13:46.252Z,100294.38
2022-10-22T02:16:19.625Z,100288.16
2022-10-22T02:18:48.698Z,100297.88
2022-10-22T02:21:16.972Z,100294.38
2022-10-22T02:23:44.800Z,100295.69
2022-10-22T02:26:17.025Z,100311.56
2022-10-22T02:28:51.347Z,100321.63
2022-10-22T02:31:22.355Z,100320.59
2022-10-22T02:33:52.963Z,100323.25
2022-10-22T02:36:21.052Z,100314.59
2022-10-22T02:38:49.378Z,100314.78
2022-10-22T02:41:17.148Z,100314.34
2022-10-22T02:43:45.937Z,100316.69
2022-10-22T02:46:13.475Z,100313.59
2022-10-22T02:48:42.306Z,100319.19
2022-10-22T02:51:09.803Z,100311.59
2022-10-22T02:53:37.445Z,100308.06
2022-10-22T02:56:06.031Z,100299.41
2022-10-22T02:58:33.547Z,100290.97
2022-10-22T03:01:01.096Z,100295.28
2022-10-22T03:03:28.635Z,100292.47
2022-10-22T03:05:57.429Z,100297.81
2022-10-22T03:08:25.000Z,100298.66
2022-10-22T03:10:52.700Z,100307.91
2022-10-22T03:13:20.159Z,100307.91
2022-10-22T03:15:49.580Z,100314.47
2022-10-22T03:18:17.531Z,100307.28
2022-10-22T03:20:45.337Z,100306.00
2022-10-22T03:23:15.618Z,100307.66
2022-10-22T03:25:44.342Z,100317.34
2022-10-22T03:28:15.093Z,100323.75
2022-10-22T03:30:42.540Z,100326.19
2022-10-22T03:33:10.013Z,100337.50
2022-10-22T03:35:42.930Z,100342.69
2022-10-22T03:38:10.466Z,100344.78
2022-10-22T03:40:39.407Z,100345.97
2022-10-22T03:43:06.973Z,100355.88
2022-10-22T03:45:34.474Z,100351.94
2022-10-22T03:48:01.968Z,100354.63
2022-10-22T03:50:29.708Z,100355.44
2022-10-22T03:52:58.119Z,100357.75
2022-10-22T03:55:25.649Z,100357.53
2022-10-22T03:57:54.449Z,100374.81
2022-10-22T04:00:22.188Z,100380.38
2022-10-22T04:02:49.653Z,100377.06
2022-10-22T04:05:17.208Z,100371.28
2022-10-22T04:07:44.683Z,100385.31
2022-10-22T04:10:12.141Z,100393.16
2022-10-22T04:12:39.613Z,100390.31
2022-10-22T04:15:10.110Z,100400.16
2022-10-22T04:17:38.421Z,100401.63
2022-10-22T04:20:07.101Z,100412.13
2022-10-22T04:22:35.076Z,100408.63
2022-10-22T04:25:02.729Z,100411.56
2022-10-22T04:27:31.296Z,100420.81
2022-10-22T04:29:58.735Z,100423.50
2022-10-22T04:32:27.666Z,100425.97
2022-10-22T04:34:55.177Z,100423.06
2022-10-22T04:37:22.782Z,100418.50
2022-10-22T04:39:50.236Z,100422.22
2022-10-22T04:42:17.770Z,100429.44
2022-10-22T04:44:45.262Z,100424.91
2022-10-22T04:47:12.796Z,100431.50
2022-10-22T04:49:41.617Z,100427.16
2022-10-22T04:52:09.076Z,100427.84
2022-10-22T04:54:36.531Z,100421.84
2022-10-22T04:57:04.031Z,100423.50
2022-10-22T04:59:31.557Z,100426.00
2022-10-22T05:01:59.007Z,100426.22
2022-10-22T05:04:26.544Z,100426.78
2022-10-22T05:06:55.439Z,100425.38
2022-10-22T05:09:22.916Z,100420.44
2022-10-22T05:11:52.362Z,100431.34
2022-10-22T05:14:21.661Z,100432.78
2022-10-22T05:16:49.553Z,100441.44
2022-10-22T05:19:19.129Z,100437.91
2022-10-22T05:21:46.575Z,100433.00
2022-10-22T05:24:15.425Z,100445.53
2022-10-22T05:26:42.923Z,100448.22
2022-10-22T05:29:10.392Z,100445.75
2022-10-22T05:31:38.803Z,100448.00
2022-10-22T05:34:06.249Z,100451.72
2022-10-22T05:36:33.737Z,100450.69
2022-10-22T05:39:01.219Z,100452.78
2022-10-22T05:41:31.444Z,100461.66
2022-10-22T05:44:00.391Z,100461.44
2022-10-22T05:46:29.741Z,100470.91
2022-10-22T05:48:59.008Z,100466.97
2022-10-22T05:51:27.610Z,100471.09
2022-10-22T05:53:56.395Z,100471.31
2022-10-22T05:56:24.419Z,100476.03
2022-10-22T05:58:53.336Z,100476.25
2022-10-22T06:01:22.698Z,100468.00
2022-10-22T06:03:50.570Z,100467.63
2022-10-22T06:06:21.191Z,100471.72
2022-10-22T06:08:50.137Z,100475.88
2022-10-22T06:11:18.350Z,100481.22
2022-10-22T06:13:45.915Z,100485.75
2022-10-22T06:16:15.250Z,100482.88
2022-10-22T06:18:42.862Z,100494.00
2022-10-22T06:21:11.784Z,100499.38
2022-10-22T06:23:39.884Z,100490.91
2022-10-22T06:26:08.140Z,100490.72
2022-10-22T06:28:36.367Z,100496.06
2022-10-22T06:31:04.906Z,100506.38
2022-10-22T06:33:37.089Z,100506.78
2022-10-22T06:36:08.386Z,100514.19
2022-10-22T06:38:35.987Z,100517.91
2022-10-22T06:41:04.879Z,100525.53
2022-10-22T06:43:32.470Z,100532.31
2022-10-22T06:46:01.364Z,100526.94
2022-10-22T06:48:29.135Z,100539.31
2022-10-22T06:50:58.084Z,100542.00
2022-10-22T06:53:25.586Z,100540.13
2022-10-22T06:55:53.142Z,100536.84
2022-10-22T06:58:20.598Z,100543.41
2022-10-22T07:00:48.120Z,100549.78
2022-10-22T07:03:16.470Z,100559.06
2022-10-22T07:05:44.024Z,100561.75
2022-10-22T07:08:12.828Z,100570.19
2022-10-22T07:10:40.402Z,100572.03
2022-10-22T07:13:07.893Z,100580.06
2022-10-22T07:15:35.469Z,100576.53
2022-10-22T07:18:04.620Z,100581.25
2022-10-22T07:20:32.112Z,100585.41
2022-10-22T07:22:59.571Z,100585.81
2022-10-22T07:25:28.442Z,100586.00
2022-10-22T07:27:56.024Z,100588.28
2022-10-22T07:30:23.534Z,100598.78
2022-10-22T07:32:51.018Z,100600.25
2022-10-22T07:35:18.516Z,100599.19
2022-10-22T07:37:46.009Z,100616.31
2022-10-22T07:40:15.440Z,100616.31
2022-10-22T07:42:47.085Z,100616.72
2022-10-22T07:45:15.215Z,100620.63
2022-10-22T07:47:43.659Z,100623.13
2022-10-22T07:50:11.738Z,100623.09
2022-10-22T07:52:39.667Z,100624.97
2022-10-22T07:55:08.128Z,100631.56
2022-10-22T07:57:36.925Z,100625.34
2022-10-22T08:00:06.632Z,100638.97
2022-10-22T08:02:34.261Z,100632.38
2022-10-22T08:05:01.737Z,100641.84
2022-10-22T08:07:29.453Z,100643.91
2022-10-22T08:09:57.171Z,100641.66
2022-10-22T08:12:24.759Z,100643.91
2022-10-22T08:14:52.272Z,100644.53
2022-10-22T08:17:21.134Z,100646.41
2022-10-22T08:19:48.621Z,100653.00
2022-10-22T08:22:16.104Z,100649.31
2022-10-22T08:24:43.618Z,100649.31
2022-10-22T08:27:11.092Z,100652.81
2022-10-22T08:29:38.589Z,100656.31
2022-10-22T08:32:06.485Z,100663.28
2022-10-22T08:34:35.333Z,100668.66
2022-10-22T08:37:02.871Z,100663.69
2022-10-22T08:39:30.505Z,100664.94
2022-10-22T08:42:06.080Z,100668.44
2022-10-22T08:44:46.586Z,100664.94
2022-10-22T08:47:23.286Z,100670.72
2022-10-22T08:49:54.647Z,100675.63
2022-10-22T08:52:23.003Z,100675.81
2022-10-22T08:54:54.157Z,100684.88
2022-10-22T08:57:33.648Z,100675.63
2022-10-22T09:00:05.705Z,100676.00
2022-10-22T09:02:39.327Z,100680.53
2022-10-22T09:05:21.936Z,100686.09
2022-10-22T09:07:50.349Z,100684.19
2022-10-22T09:10:19.083Z,100684.63
2022-10-22T09:12:46.877Z,100682.72
2022-10-22T09:15:15.266Z,100681.69
2022-10-22T09:17:52.246Z,100686.25
2022-10-22T09:20:28.486Z,100686.84
2022-10-22T09:23:02.845Z,100687.81
2022-10-22T09:25:32.747Z,100692.34
2022-10-22T09:28:00.261Z,100685.50
2022-10-22T09:30:29.735Z,100684.69
2022-10-22T09:33:01.813Z,100694.38
2022-10-22T09:35:34.598Z,100699.16
2022-10-22T09:38:08.972Z,100691.09
2022-10-22T09:40:44.278Z,100698.31
2022-10-22T09:43:14.201Z,100702.63
2022-10-22T09:45:42.300Z,100709.19
2022-10-22T09:48:20.517Z,100717.59
2022-10-22T09:50:56.231Z,100713.28
2022-10-22T09:53:28.294Z,100711.84
2022-10-22T09:55:58.667Z,100707.47
2022-10-22T09:58:26.578Z,100705.38
2022-10-22T10:00:56.783Z,100715.09
2022-10-22T10:03:26.335Z,100711.72
2022-10-22T10:06:00.171Z,100710.69
2022-10-22T10:08:30.819Z,100706.91
2022-10-22T10:11:02.105Z,100708.56
2022-10-22T10:13:45.798Z,100710.94
2022-10-22T10:16:22.891Z,100715.44
2022-10-22T10:19:04.187Z,100714.38
2022-10-22T10:21:39.355Z,100712.03
2022-10-22T10:24:15.013Z,100715.72
2022-10-22T10:26:47.569Z,100715.28
2022-10-22T10:29:25.137Z,100718.56
2022-10-22T10:32:04.368Z,100712.31
2022-10-22T10:34:40.868Z,100715.97
2022-10-22T10:37:18.638Z,100718.97
2022-10-22T10:40:06.477Z,100722.91
2022-10-22T10:42:37.795Z,100716.34
2022-10-22T10:45:17.429Z,100721.56
2022-10-22T10:48:30.357Z,100726.06
2022-10-22T10:51:05.423Z,100723.31
2022-10-22T10:53:45.678Z,100728.69
2022-10-22T10:56:26.201Z,100720.38
2022-10-22T10:59:02.502Z,100717.06
2022-10-22T11:01:37.115Z,100721.13
2022-10-22T11:04:21.461Z,100718.72
2022-10-22T11:06:50.228Z,100709.97
2022-10-22T11:09:24.663Z,100711.25
2022-10-22T11:11:54.995Z,100710.88
2022-10-22T11:14:27.889Z,100708.72
2022-10-22T11:17:01.599Z,100703.53
2022-10-22T11:19:50.176Z,100708.72
2022-10-22T11:22:26.584Z,100704.69
2022-10-22T11:24:58.353Z,100696.53
2022-10-22T11:27:29.818Z,100689.19
2022-10-22T11:30:01.907Z,100696.59
2022-10-22T11:32:29.525Z,100694.63
2022-10-22T11:34:59.617Z,100694.59
2022-10-22T11:37:34.392Z,100693.06
2022-10-22T11:40:06.591Z,100701.66
2022-10-22T11:42:36.587Z,100700.28
2022-10-22T11:45:06.628Z,100712.47
2022-10-22T11:47:35.874Z,100705.91
2022-10-22T11:50:19.115Z,100708.00
2022-10-22T11:52:55.124Z,100707.63
2022-10-22T11:55:34.220Z,100703.31
2022-10-22T11:58:03.819Z,100706.69
2022-10-22T12:00:41.242Z,100705.03
2022-10-22T12:03:18.204Z,100706.31
2022-10-22T12:05:46.305Z,100701.53
2022-10-22T12:08:19.285Z,100697.19
2022-10-22T12:10:59.302Z,100695.22
2022-10-22T12:13:28.851Z,100697.22
2022-10-22T12:15:59.589Z,100691.13
2022-10-22T12:18:29.403Z,100689.16
2022-10-22T12:20:56.891Z,100685.84
2022-10-22T12:23:33.293Z,100688.22
2022-10-22T12:26:02.361Z,100678.59
2022-10-22T12:28:29.819Z,100685.22
2022-10-22T12:31:00.448Z,100672.44
2022-10-22T12:33:28.205Z,100674.53
2022-10-22T12:35:57.523Z,100674.53
2022-10-22T12:38:26.456Z,100673.59
2022-10-22T12:40:56.310Z,100674.03
2022-10-22T12:43:27.883Z,100663.19
2022-10-22T12:45:55.703Z,100663.97
2022-10-22T12:48:25.304Z,100665.88
2022-10-22T12:50:54.603Z,100669.38
2022-10-22T12:53:26.352Z,100668.09
2022-10-22T12:55:55.322Z,100667.50
2022-10-22T12:58:28.360Z,100671.00
2022-10-22T13:01:02.066Z,100670.91
2022-10-22T13:03:32.793Z,100678.53
2022-10-22T13:06:13.230Z,100673.81
2022-10-22T13:08:41.268Z,100669.16
2022-10-22T13:11:10.199Z,100676.97
2022-10-22T13:13:48.357Z,100664.69
2022-10-22T13:16:18.710Z,100667.00
2022-10-22T13:18:47.465Z,100668.88
2022-10-22T13:21:26.307Z,100668.63
2022-10-22T13:23:57.406Z,100671.44
2022-10-22T13:26:26.224Z,100676.59
2022-10-22T13:28:56.856Z,100681.06
2022-10-22T13:31:26.781Z,100667.09
2022-10-22T13:33:57.471Z,100668.28
2022-10-22T13:36:25.695Z,100672.63
2022-10-22T13:38:53.314Z,100663.47
2022-10-22T13:41:23.014Z,100664.19
2022-10-22T13:43:50.849Z,100673.84
2022-10-22T13:46:19.848Z,100666.44
2022-10-22T13:48:48.356Z,100667.50
2022-10-22T13:51:17.823Z,100671.28
2022-10-22T13:53:46.561Z,100672.16
2022-10-22T13:56:16.437Z,100669.34
2022-10-22T13:58:44.721Z,100669.94
2022-10-22T14:01:21.677Z,100669.56
2022-10-22T14:03:50.406Z,100672.97
2022-10-22T14:06:19.708Z,100672.13
2022-10-22T14:08:50.448Z,100668.41
2022-10-22T14:11:18.500Z,100675.41
2022-10-22T14:13:45.969Z,100682.56
2022-10-22T14:16:17.874Z,100689.38
2022-10-22T14:18:47.314Z,100683.13
2022-10-22T14:21:15.877Z,100675.88
2022-10-22T14:23:44.993Z,100666.25
2022-10-22T14:26:20.896Z,100674.94
2022-10-22T14:29:08.720Z,100680.88
2022-10-22T14:31:36.314Z,100670.09
2022-10-22T14:34:05.211Z,100672.94
2022-10-22T14:36:32.717Z,100677.66
2022-10-22T14:39:00.263Z,100679.78
2022-10-22T14:41:29.775Z,100687.53
2022-10-22T14:43:59.434Z,100692.03
2022-10-22T14:46:26.898Z,100685.63
2022-10-22T14:48:54.423Z,100685.94
2022-10-22T14:51:23.496Z,100689.00
2022-10-22T14:53:51.301Z,100686.97
2022-10-22T14:56:21.148Z,100684.97
2022-10-22T14:58:49.058Z,100686.00
2022-10-22T15:01:16.626Z,100681.41
2022-10-22T15:03:44.090Z,100685.16
2022-10-22T15:06:11.592Z,100681.78
2022-10-22T15:08:40.504Z,100678.47
2022-10-22T15:11:10.649Z,100685.38
2022-10-22T15:13:39.158Z,100694.78
2022-10-22T15:16:07.481Z,100690.06
2022-10-22T15:18:35.020Z,100692.53
2022-10-22T15:21:05.183Z,100691.81
2022-10-22T15:23:33.073Z,100700.78
2022-10-22T15:26:02.012Z,100704.25
2022-10-22T15:28:30.401Z,100700.56
2022-10-22T15:30:59.815Z,100701.78
2022-10-22T15:33:28.939Z,100703.13
2022-10-22T15:35:57.171Z,100710.56
2022-10-22T15:41:05.419Z,100706.91
2022-10-22T15:43:33.800Z,100704.84
2022-10-22T15:46:10.973Z,100704.50
2022-10-22T15:48:38.740Z,100713.63
2022-10-22T15:51:10.886Z,100716.75
2022-10-22T15:53:38.756Z,100712.06
2022-10-22T15:56:08.483Z,100708.97
2022-10-22T15:58:36.071Z,100711.78
2022-10-22T16:01:07.604Z,100715.97
2022-10-22T16:03:35.337Z,100714.41
2022-10-22T16:06:03.055Z,100713.19
2022-10-22T16:08:30.627Z,100703.94
2022-10-22T16:10:58.491Z,100707.53
2022-10-22T16:13:27.429Z,100712.97
2022-10-22T16:15:55.918Z,100721.72
2022-10-22T16:18:24.024Z,100719.66
2022-10-22T16:20:51.540Z,100714.53
2022-10-22T16:23:20.750Z,100721.81
2022-10-22T16:25:48.241Z,100717.69
2022-10-22T16:28:15.714Z,100723.53
2022-10-22T16:30:44.564Z,100722.72
2022-10-22T16:33:12.627Z,100731.00
2022-10-22T16:35:43.685Z,100723.00
2022-10-22T16:38:12.173Z,100724.44
2022-10-22T16:40:39.808Z,100717.88
2022-10-22T16:43:07.335Z,100713.78
2022-10-22T16:45:34.827Z,100714.66
2022-10-22T16:48:03.822Z,100721.91
2022-10-22T16:50:31.372Z,100716.34
2022-10-22T16:52:58.876Z,100724.22
2022-10-22T16:55:26.377Z,100738.06
2022-10-22T16:57:54.320Z,100733.31
2022-10-22T17:00:22.107Z,100731.66
2022-10-22T17:02:53.871Z,100734.16
2022-10-22T17:05:23.391Z,100738.94
2022-10-22T17:07:51.246Z,100747.59
2022-10-22T17:10:19.613Z,100745.97
2022-10-22T17:12:47.542Z,100757.91
2022-10-22T17:15:15.659Z,100763.06
2022-10-22T17:17:43.431Z,100759.38
2022-10-22T17:20:12.196Z,100762.25
2022-10-22T17:22:41.302Z,100758.75
2022-10-22T17:25:12.585Z,100757.28
2022-10-22T17:27:40.554Z,100766.38
2022-10-22T17:30:09.768Z,100770.28
2022-10-22T17:32:38.908Z,100767.75
2022-10-22T17:35:07.708Z,100775.34
2022-10-22T17:37:35.911Z,100779.50
2022-10-22T17:40:06.067Z,100776.81
2022-10-22T17:42:33.551Z,100765.69
2022-10-22T17:45:01.034Z,100772.66
2022-10-22T17:47:28.579Z,100772.06
2022-10-22T17:49:56.148Z,100775.75
2022-10-22T17:52:23.783Z,100783.38
2022-10-22T17:54:51.516Z,100784.38
2022-10-22T17:57:20.361Z,100791.16
2022-10-22T17:59:47.823Z,100793.22
2022-10-22T18:02:17.240Z,100789.28
2022-10-22T18:04:45.239Z,100796.28
2022-10-22T18:07:13.501Z,100797.44
2022-10-22T18:09:42.715Z,100800.41
2022-10-22T18:12:11.726Z,100797.31
2022-10-22T18:14:41.125Z,100792.72
2022-10-22T18:17:09.234Z,100807.75
2022-10-22T18:19:36.843Z,100796.63
2022-10-22T18:22:05.660Z,100790.03
2022-10-22T18:24:33.164Z,100795.19
2022-10-22T18:27:00.704Z,100796.59
2022-10-22T18:29:28.278Z,100809.66
2022-10-22T18:31:57.141Z,100804.66
2022-10-22T18:34:24.608Z,100809.22
2022-10-22T18:36:52.143Z,100800.97
2022-10-22T18:39:19.959Z,100794.44
2022-10-22T18:41:47.437Z,100794.16
2022-10-22T18:44:18.104Z,100796.22
2022-10-22T18:46:45.597Z,100791.31
2022-10-22T18:49:18.968Z,100787.22
2022-10-22T18:51:48.532Z,100794.00
2022-10-22T18:54:23.000Z,100794.91
2022-10-22T18:56:51.027Z,100797.31
2022-10-22T18:59:20.244Z,100801.38
2022-10-22T19:01:47.829Z,100801.91
2022-10-22T19:04:16.675Z,100797.41
2022-10-22T19:06:45.737Z,100795.50
2022-10-22T19:09:17.414Z,100786.75
2022-10-22T19:11:45.299Z,100788.13
2022-10-22T19:14:13.885Z,100784.34
2022-10-22T19:16:41.330Z,100793.59
2022-10-22T19:19:09.064Z,100788.63
2022-10-22T19:21:38.397Z,100784.13
2022-10-22T19:24:06.591Z,100798.53
2022-10-22T19:26:34.076Z,100795.47
2022-10-22T19:29:01.723Z,100785.19
2022-10-22T19:31:31.073Z,100799.16
2022-10-22T19:33:59.316Z,100794.25
2022-10-22T19:36:28.716Z,100800.50
2022-10-22T19:38:58.397Z,100802.88
2022-10-22T19:41:28.340Z,100807.22
2022-10-22T19:43:56.779Z,100816.00
2022-10-22T19:46:26.531Z,100804.47
2022-10-22T19:48:56.342Z,100806.84
2022-10-22T19:51:26.166Z,100799.78
2022-10-22T19:53:59.405Z,100798.81
2022-10-22T19:56:27.087Z,100795.75
2022-10-22T19:58:54.590Z,100788.44
2022-10-22T20:01:22.306Z,100793.03
2022-10-22T20:03:50.018Z,100802.75
2022-10-22T20:06:18.599Z,100799.91
2022-10-22T20:08:46.780Z,100791.50
2022-10-22T20:11:19.085Z,100790.53
2022-10-22T20:13:51.173Z,100796.66
2022-10-22T20:16:23.496Z,100794.09
2022-10-22T20:18:51.190Z,100797.56
2022-10-22T20:21:19.807Z,100797.28
2022-10-22T20:23:48.012Z,100789.56
2022-10-22T20:26:16.815Z,100798.75
2022-10-22T20:28:44.408Z,100810.19
2022-10-22T20:31:12.964Z,100811.97
2022-10-22T20:33:41.236Z,100816.16
2022-10-22T20:36:19.820Z,100820.78
2022-10-22T20:38:48.328Z,100810.38
2022-10-22T20:41:20.345Z,100819.59
2022-10-22T20:43:49.187Z,100826.22
2022-10-22T20:46:19.451Z,100820.22
2022-10-22T20:48:47.069Z,100821.31
2022-10-22T20:51:14.873Z,100815.41
2022-10-22T20:53:43.037Z,100805.56
2022-10-22T20:56:11.236Z,100803.03
2022-10-22T20:58:40.272Z,100807.91
2022-10-22T21:01:12.073Z,100804.78
2022-10-22T21:03:39.763Z,100794.75
2022-10-22T21:06:07.835Z,100792.19
2022-10-22T21:08:35.399Z,100799.03
2022-10-22T21:11:03.021Z,100794.38
2022-10-22T21:13:32.487Z,100799.19
2022-10-22T21:16:08.047Z,100812.19
2022-10-22T21:18:36.010Z,100802.44
2022-10-22T21:21:05.046Z,100801.84
2022-10-22T21:23:32.717Z,100791.84
2022-10-22T21:26:00.335Z,100793.59
2022-10-22T21:28:28.112Z,100787.13
2022-10-22T21:30:55.969Z,100795.59
2022-10-22T21:33:24.882Z,100798.81
2022-10-22T21:35:53.132Z,100796.09
2022-10-22T21:38:21.199Z,100794.56
2022-10-22T21:40:49.000Z,100788.84
2022-10-22T21:43:17.474Z,100795.53
2022-10-22T21:45:45.541Z,100793.44
2022-10-22T21:48:13.724Z,100800.97
2022-10-22T21:50:43.462Z,100797.78
2022-10-22T21:53:11.957Z,100801.84
2022-10-22T21:55:40.218Z,100799.91
2022-10-22T21:58:08.532Z,100799.56
2022-10-22T22:00:36.621Z,100803.09
2022-10-22T22:03:04.690Z,100812.72
2022-10-22T22:05:32.205Z,100812.84
2022-10-22T22:08:01.184Z,100809.19
2022-10-22T22:10:28.938Z,100818.09
2022-10-22T22:12:56.645Z,100819.00
2022-10-22T22:15:24.281Z,100817.72
2022-10-22T22:17:51.826Z,100809.72
2022-10-22T22:20:19.836Z,100811.63
2022-10-22T22:22:47.642Z,100814.75
2022-10-22T22:25:16.814Z,100811.38
2022-10-22T22:27:44.664Z,100814.22
2022-10-22T22:30:13.145Z,100825.44
2022-10-22T22:32:40.747Z,100811.09
2022-10-22T22:35:08.972Z,100814.97
2022-10-22T22:37:36.505Z,100811.84
2022-10-22T22:40:04.170Z,100815.06
2022-10-22T22:42:33.167Z,100808.53
2022-10-22T22:45:00.742Z,100806.75
2022-10-22T22:47:28.304Z,100792.69
2022-10-22T22:49:55.934Z,100787.44
2022-10-22T22:52:25.580Z,100788.19
2022-10-22T22:54:53.203Z,100782.50
2022-10-22T22:57:21.218Z,100784.72
2022-10-22T22:59:52.066Z,100780.59
2022-10-22T23:02:19.885Z,100781.75
2022-10-22T23:04:47.488Z,100787.94
2022-10-22T23:07:15.156Z,100790.88
2022-10-22T23:09:42.701Z,100779.09
2022-10-22T23:12:10.350Z,100774.06
2022-10-22T23:14:37.976Z,100769.94
2022-10-22T23:17:07.040Z,100765.78
2022-10-22T23:19:34.756Z,100762.91
2022-10-22T23:22:02.511Z,100763.66
2022-10-22T23:24:30.415Z,100766.06
2022-10-22T23:27:01.191Z,100756.66
2022-10-22T23:29:30.190Z,100762.66
2022-10-22T23:32:01.139Z,100759.06
2022-10-22T23:34:31.345Z,100764.22
2022-10-22T23:36:59.983Z,100765.97
2022-10-22T23:39:29.106Z,100760.91
2022-10-22T23:41:57.000Z,100756.75
2022-10-22T23:44:25.270Z,100758.50
2022-10-22T23:46:52.931Z,100762.91
2022-10-22T23:49:20.568Z,100765.09
2022-10-22T23:51:49.498Z,100766.53
2022-10-22T23:54:18.936Z,100761.19
2022-10-22T23:56:46.889Z,100758.56
